createdAt,value
2018-06-01T00:00:25.893Z,57.60
2018-06-01T00:02:53.452Z,58.00
2018-06-01T00:05:21.037Z,58.00
2018-06-01T00:07:48.586Z,58.30
2018-06-01T00:10:16.182Z,56.40
2018-06-01T00:12:43.782Z,58.00
2018-06-01T00:15:11.343Z,57.40
2018-06-01T00:17:39.599Z,57.80
2018-06-01T00:20:07.968Z,58.40
2018-06-01T00:22:36.004Z,58.60
2018-06-01T00:25:04.367Z,59.80
2018-06-01T00:27:32.644Z,59.70
2018-06-01T00:30:01.023Z,61.60
2018-06-01T00:32:28.583Z,61.60
2018-06-01T00:34:56.142Z,61.30
2018-06-01T00:37:23.745Z,60.80
2018-06-01T00:39:51.381Z,60.20
2018-06-01T00:42:18.968Z,59.80
2018-06-01T00:44:47.215Z,59.00
2018-06-01T00:47:14.890Z,58.50
2018-06-01T00:52:14.603Z,57.90
2018-06-01T00:54:54.044Z,58.20
2018-06-01T00:57:21.579Z,57.10
2018-06-01T00:59:49.160Z,57.90
2018-06-01T01:02:17.124Z,57.00
2018-06-01T01:04:44.666Z,57.40
2018-06-01T01:07:12.198Z,57.60
2018-06-01T01:09:39.784Z,57.10
2018-06-01T01:12:07.319Z,56.90
2018-06-01T01:14:35.155Z,57.10
2018-06-01T01:17:02.761Z,57.00
2018-06-01T01:19:30.299Z,55.00
2018-06-01T01:21:57.862Z,54.80
2018-06-01T01:24:26.215Z,54.50
2018-06-01T01:26:53.835Z,54.10
2018-06-01T01:29:21.472Z,54.20
2018-06-01T01:31:48.993Z,54.00
2018-06-01T01:34:16.530Z,53.30
2018-06-01T01:36:44.848Z,53.60
2018-06-01T01:39:12.395Z,53.50
2018-06-01T01:41:39.990Z,53.60
2018-06-01T01:44:08.305Z,52.70
2018-06-01T01:46:35.826Z,52.70
2018-06-01T01:49:03.362Z,53.50
2018-06-01T01:51:30.889Z,52.30
2018-06-01T01:53:58.442Z,51.80
2018-06-01T01:56:25.974Z,52.70
2018-06-01T01:58:54.833Z,50.50
2018-06-01T02:01:22.357Z,50.50
2018-06-01T02:03:49.902Z,52.10
2018-06-01T02:06:18.269Z,50.00
2018-06-01T02:08:45.815Z,50.40
2018-06-01T02:11:13.358Z,50.30
2018-06-01T02:13:41.655Z,51.60
2018-06-01T02:16:10.510Z,51.50
2018-06-01T02:18:38.026Z,51.50
2018-06-01T02:21:05.571Z,52.30
2018-06-01T02:23:33.863Z,50.30
2018-06-01T02:26:01.839Z,50.30
2018-06-01T02:28:29.367Z,49.80
2018-06-01T02:30:57.659Z,51.20
2018-06-01T02:33:25.982Z,51.10
2018-06-01T02:35:53.501Z,51.10
2018-06-01T02:38:21.043Z,51.50
2018-06-01T02:40:48.567Z,50.70
2018-06-01T02:43:16.115Z,51.30
2018-06-01T02:45:44.451Z,51.10
2018-06-01T02:48:12.763Z,50.60
2018-06-01T02:50:40.994Z,50.60
2018-06-01T02:53:08.523Z,51.20
2018-06-01T02:55:36.069Z,51.00
2018-06-01T02:58:03.632Z,50.20
2018-06-01T03:00:31.554Z,50.60
2018-06-01T03:02:59.834Z,50.40
2018-06-01T03:05:28.523Z,51.40
2018-06-01T03:07:56.052Z,51.30
2018-06-01T03:10:23.854Z,51.10
2018-06-01T03:12:52.169Z,52.40
2018-06-01T03:15:19.704Z,52.40
2018-06-01T03:17:47.654Z,51.00
2018-06-01T03:20:16.118Z,51.60
2018-06-01T03:22:43.662Z,51.50
2018-06-01T03:25:11.190Z,51.00
2018-06-01T03:27:39.298Z,50.80
2018-06-01T03:30:06.800Z,50.10
2018-06-01T03:32:34.326Z,50.00
2018-06-01T03:35:02.894Z,49.70
2018-06-01T03:37:30.431Z,49.80
2018-06-01T03:39:57.990Z,49.40
2018-06-01T03:42:26.229Z,50.70
2018-06-01T03:44:54.543Z,51.00
2018-06-01T03:47:22.094Z,51.00
2018-06-01T03:49:49.627Z,50.20
2018-06-01T03:52:17.934Z,51.00
2018-06-01T03:54:45.828Z,51.00
2018-06-01T03:57:13.362Z,51.40
2018-06-01T03:59:40.987Z,51.00
2018-06-01T04:02:09.692Z,52.90
2018-06-01T04:04:37.215Z,52.80
2018-06-01T04:07:05.537Z,51.00
2018-06-01T04:09:33.086Z,50.90
2018-06-01T04:12:00.636Z,50.90
2018-06-01T04:14:28.930Z,50.70
2018-06-01T04:16:56.510Z,50.70
2018-06-01T04:19:24.849Z,50.40
2018-06-01T04:21:52.496Z,50.30
2018-06-01T04:24:20.046Z,50.90
2018-06-01T04:26:48.695Z,51.70
2018-06-01T04:29:16.266Z,52.20
2018-06-01T04:31:43.796Z,53.50
2018-06-01T04:34:11.350Z,54.70
2018-06-01T04:36:40.055Z,55.60
2018-06-01T04:39:07.606Z,55.60
2018-06-01T04:41:35.152Z,55.30
2018-06-01T04:44:04.269Z,55.30
2018-06-01T04:46:32.563Z,55.10
2018-06-01T04:49:00.099Z,55.90
2018-06-01T04:51:27.636Z,54.80
2018-06-01T04:53:55.458Z,54.30
2018-06-01T04:56:22.987Z,53.90
2018-06-01T04:58:50.934Z,53.40
2018-06-01T05:01:19.237Z,54.20
2018-06-01T05:03:46.915Z,54.20
2018-06-01T05:06:14.466Z,53.00
2018-06-01T05:08:41.991Z,51.80
2018-06-01T05:11:11.238Z,51.30
2018-06-01T05:13:39.031Z,51.30
2018-06-01T05:16:06.647Z,51.40
2018-06-01T05:18:34.178Z,50.90
2018-06-01T05:21:02.998Z,52.50
2018-06-01T05:23:30.526Z,52.50
2018-06-01T05:25:58.835Z,53.30
2018-06-01T05:28:26.387Z,53.30
2018-06-01T05:30:55.409Z,54.20
2018-06-01T05:33:22.951Z,54.50
2018-06-01T05:35:50.473Z,54.10
2018-06-01T05:38:18.146Z,54.00
2018-06-01T05:40:46.577Z,54.00
2018-06-01T05:43:14.134Z,54.00
2018-06-01T05:45:41.670Z,54.30
2018-06-01T05:48:09.292Z,55.00
2018-06-01T05:50:36.829Z,54.60
2018-06-01T05:53:04.373Z,54.90
2018-06-01T05:55:31.946Z,54.90
2018-06-01T05:57:59.474Z,54.10
2018-06-01T06:00:27.021Z,54.00
2018-06-01T06:02:55.185Z,53.60
2018-06-01T06:05:22.733Z,53.50
2018-06-01T06:07:51.038Z,53.10
2018-06-01T06:10:18.591Z,53.10
2018-06-01T06:12:46.127Z,52.50
2018-06-01T06:15:14.575Z,51.90
2018-06-01T06:17:42.163Z,51.90
2018-06-01T06:20:10.820Z,52.10
2018-06-01T06:22:38.418Z,52.00
2018-06-01T06:25:05.955Z,52.10
2018-06-01T06:27:33.568Z,52.70
2018-06-01T06:30:01.207Z,53.00
2018-06-01T06:32:29.646Z,53.20
2018-06-01T06:34:57.203Z,53.20
2018-06-01T06:37:24.768Z,54.00
2018-06-01T06:39:52.299Z,52.80
2018-06-01T06:42:19.902Z,52.90
2018-06-01T06:44:47.955Z,52.30
2018-06-01T06:47:15.510Z,51.70
2018-06-01T06:49:43.062Z,51.00
2018-06-01T06:52:10.609Z,50.90
2018-06-01T06:54:38.152Z,50.60
2018-06-01T06:57:05.687Z,50.40
2018-06-01T06:59:33.230Z,50.10
2018-06-01T07:02:00.770Z,50.20
2018-06-01T07:04:28.318Z,49.50
2018-06-01T07:06:55.857Z,49.50
2018-06-01T07:09:23.413Z,49.00
2018-06-01T07:11:50.939Z,48.80
2018-06-01T07:14:18.494Z,48.20
2018-06-01T07:16:46.030Z,47.70
2018-06-01T07:19:13.584Z,46.60
2018-06-01T07:21:41.110Z,47.10
2018-06-01T07:24:08.651Z,47.20
2018-06-01T07:26:37.311Z,47.70
2018-06-01T07:29:04.857Z,47.70
2018-06-01T07:31:32.395Z,47.90
2018-06-01T07:33:59.939Z,48.40
2018-06-01T07:36:27.478Z,49.30
2018-06-01T07:38:55.792Z,49.70
2018-06-01T07:41:23.332Z,49.70
2018-06-01T07:43:51.726Z,49.40
2018-06-01T07:46:19.266Z,49.40
2018-06-01T07:48:47.567Z,49.40
2018-06-01T07:51:15.105Z,49.30
2018-06-01T07:53:42.637Z,48.90
2018-06-01T07:56:10.230Z,49.30
2018-06-01T07:58:38.543Z,48.90
2018-06-01T08:01:06.170Z,48.90
2018-06-01T08:03:33.740Z,48.40
2018-06-01T08:06:02.056Z,47.30
2018-06-01T08:08:29.615Z,47.30
2018-06-01T08:10:57.166Z,46.70
2018-06-01T08:13:25.141Z,46.80
2018-06-01T08:15:52.669Z,45.70
2018-06-01T08:18:20.227Z,43.90
2018-06-01T08:20:47.833Z,43.90
2018-06-01T08:23:15.362Z,42.10
2018-06-01T08:25:42.902Z,42.00
2018-06-01T08:28:10.434Z,41.70
2018-06-01T08:30:37.995Z,42.30
2018-06-01T08:33:05.524Z,42.40
2018-06-01T08:35:33.846Z,42.70
2018-06-01T08:38:02.350Z,43.80
2018-06-01T08:40:29.890Z,43.80
2018-06-01T08:42:58.203Z,41.20
2018-06-01T08:45:26.439Z,41.10
2018-06-01T08:47:55.201Z,38.30
2018-06-01T08:50:22.746Z,38.30
2018-06-01T08:52:50.283Z,37.40
2018-06-01T08:55:18.727Z,36.60
2018-06-01T08:57:46.282Z,34.20
2018-06-01T09:00:13.862Z,33.10
2018-06-01T09:02:42.190Z,33.80
2018-06-01T09:05:10.300Z,33.80
2018-06-01T09:07:37.874Z,31.40
2018-06-01T09:10:05.503Z,30.40
2018-06-01T09:12:33.043Z,28.90
2018-06-01T09:15:00.612Z,28.40
2018-06-01T09:17:28.191Z,28.90
2018-06-01T09:19:56.515Z,31.30
2018-06-01T09:22:24.086Z,31.20
2018-06-01T09:24:51.634Z,31.40
2018-06-01T09:27:19.202Z,32.50
2018-06-01T09:29:46.791Z,31.90
2018-06-01T09:32:14.323Z,33.00
2018-06-01T09:34:41.857Z,32.60
2018-06-01T09:37:10.266Z,31.20
2018-06-01T09:39:37.823Z,31.90
2018-06-01T09:42:05.378Z,30.60
2018-06-01T09:44:33.110Z,31.70
2018-06-01T09:47:00.690Z,31.30
2018-06-01T09:49:28.255Z,31.70
2018-06-01T09:51:55.927Z,31.60
2018-06-01T09:54:23.493Z,30.30
2018-06-01T09:56:51.049Z,29.90
2018-06-01T09:59:18.626Z,29.30
2018-06-01T10:01:46.191Z,29.90
2018-06-01T10:04:13.759Z,29.90
2018-06-01T10:06:41.326Z,29.90
2018-06-01T10:09:09.669Z,29.60
2018-06-01T10:11:37.234Z,29.60
2018-06-01T10:14:05.019Z,29.50
2018-06-01T10:16:32.579Z,30.30
2018-06-01T10:19:00.130Z,29.70
2018-06-01T10:21:27.691Z,31.30
2018-06-01T10:23:55.257Z,33.10
2018-06-01T10:26:22.830Z,32.30
2018-06-01T10:28:51.158Z,30.80
2018-06-01T10:31:18.714Z,30.80
2018-06-01T10:33:46.291Z,31.00
2018-06-01T10:36:14.191Z,32.60
2018-06-01T10:38:41.746Z,32.70
2018-06-01T10:41:09.310Z,33.70
2018-06-01T10:43:36.878Z,33.80
2018-06-01T10:46:05.207Z,28.70
2018-06-01T10:48:33.667Z,28.60
2018-06-01T10:51:01.226Z,27.60
2018-06-01T10:53:28.879Z,28.00
2018-06-01T10:55:56.462Z,28.70
2018-06-01T10:58:24.064Z,28.80
2018-06-01T11:00:51.626Z,25.40
2018-06-01T11:03:19.176Z,24.80
2018-06-01T11:05:48.527Z,24.90
2018-06-01T11:08:16.940Z,25.10
2018-06-01T11:10:44.510Z,25.00
2018-06-01T11:13:12.087Z,24.40
2018-06-01T11:15:39.754Z,26.20
2018-06-01T11:18:07.313Z,25.90
2018-06-01T11:20:34.884Z,26.20
2018-06-01T11:23:03.419Z,27.20
2018-06-01T11:25:30.978Z,28.20
2018-06-01T11:27:58.536Z,28.00
2018-06-01T11:30:26.111Z,28.30
2018-06-01T11:32:53.662Z,29.20
2018-06-01T11:35:21.271Z,30.40
2018-06-01T11:37:48.842Z,30.80
2018-06-01T11:40:18.300Z,29.80
2018-06-01T11:42:45.864Z,29.80
2018-06-01T11:45:13.450Z,28.40
2018-06-01T11:47:41.847Z,27.10
2018-06-01T11:50:10.425Z,27.30
2018-06-01T11:52:38.042Z,27.30
2018-06-01T11:55:05.598Z,28.10
2018-06-01T11:57:33.224Z,26.80
2018-06-01T12:00:01.547Z,24.00
2018-06-01T12:02:29.131Z,24.00
2018-06-01T12:04:56.686Z,22.60
2018-06-01T12:07:24.275Z,22.30
2018-06-01T12:09:52.614Z,22.20
2018-06-01T12:12:20.175Z,22.20
2018-06-01T12:14:47.750Z,21.70
2018-06-01T12:17:15.307Z,21.80
2018-06-01T12:19:42.869Z,21.10
2018-06-01T12:22:10.525Z,21.20
2018-06-01T12:24:38.086Z,21.80
2018-06-01T12:27:05.642Z,21.80
2018-06-01T12:29:33.300Z,22.00
2018-06-01T12:32:01.050Z,22.90
2018-06-01T12:34:28.610Z,22.90
2018-06-01T12:36:56.430Z,24.10
2018-06-01T12:39:25.523Z,24.20
2018-06-01T12:41:53.849Z,24.70
2018-06-01T12:44:21.438Z,24.70
2018-06-01T12:46:48.992Z,24.80
2018-06-01T12:49:16.963Z,25.80
2018-06-01T12:51:44.516Z,25.80
2018-06-01T12:54:12.115Z,26.10
2018-06-01T12:56:40.291Z,26.30
2018-06-01T12:59:08.622Z,25.50
2018-06-01T13:01:36.187Z,25.50
2018-06-01T13:04:03.765Z,24.70
2018-06-01T13:06:31.327Z,24.40
2018-06-01T13:08:58.953Z,25.20
2018-06-01T13:11:26.450Z,26.30
2018-06-01T13:13:54.021Z,27.30
2018-06-01T13:16:21.586Z,27.80
2018-06-01T13:18:49.146Z,27.80
2018-06-01T13:21:16.719Z,28.60
2018-06-01T13:23:44.264Z,28.30
2018-06-01T13:26:11.836Z,28.00
2018-06-01T13:28:40.571Z,26.10
2018-06-01T13:31:08.142Z,25.60
2018-06-01T13:33:35.691Z,26.50
2018-06-01T13:36:04.390Z,28.50
2018-06-01T13:38:32.010Z,28.50
2018-06-01T13:40:59.570Z,26.80
2018-06-01T13:43:27.135Z,25.50
2018-06-01T13:45:54.729Z,25.20
2018-06-01T13:48:22.297Z,22.40
2018-06-01T13:50:49.855Z,22.50
2018-06-01T13:53:17.850Z,22.80
2018-06-01T13:55:45.448Z,23.60
2018-06-01T13:58:13.027Z,24.70
2018-06-01T14:00:40.612Z,25.80
2018-06-01T14:03:08.163Z,25.10
2018-06-01T14:05:35.731Z,24.80
2018-06-01T14:08:04.211Z,23.90
2018-06-01T14:10:31.855Z,23.20
2018-06-01T14:12:59.406Z,22.50
2018-06-01T14:15:26.989Z,21.60
2018-06-01T14:17:54.615Z,21.20
2018-06-01T14:20:22.944Z,21.40
2018-06-01T14:22:50.506Z,21.40
2018-06-01T14:25:18.222Z,21.30
2018-06-01T14:27:45.798Z,21.90
2018-06-01T14:30:13.379Z,22.00
2018-06-01T14:32:40.962Z,21.80
2018-06-01T14:35:08.522Z,21.60
2018-06-01T14:37:36.167Z,21.90
2018-06-01T14:40:04.438Z,22.00
2018-06-01T14:42:32.750Z,22.00
2018-06-01T14:45:00.311Z,21.00
2018-06-01T14:47:27.875Z,20.40
2018-06-01T14:49:56.659Z,21.30
2018-06-01T14:52:24.442Z,21.10
2018-06-01T14:54:52.778Z,21.70
2018-06-01T14:57:20.338Z,21.70
2018-06-01T14:59:47.882Z,21.80
2018-06-01T15:02:15.488Z,21.60
2018-06-01T15:04:43.064Z,22.30
2018-06-01T15:07:13.410Z,23.40
2018-06-01T15:09:41.988Z,23.30
2018-06-01T15:12:09.587Z,22.80
2018-06-01T15:14:37.346Z,22.30
2018-06-01T15:17:04.915Z,22.20
2018-06-01T15:19:32.655Z,23.20
2018-06-01T15:22:00.236Z,23.10
2018-06-01T15:24:27.809Z,23.30
2018-06-01T15:26:55.551Z,22.50
2018-06-01T15:29:23.130Z,22.70
2018-06-01T15:31:50.685Z,22.30
2018-06-01T15:34:18.995Z,22.20
2018-06-01T15:36:47.526Z,24.30
2018-06-01T15:39:15.095Z,24.30
2018-06-01T15:41:42.655Z,23.70
2018-06-01T15:44:10.731Z,24.20
2018-06-01T15:46:38.366Z,23.60
2018-06-01T15:49:05.960Z,23.10
2018-06-01T15:51:33.572Z,23.10
2018-06-01T15:54:01.923Z,24.20
2018-06-01T15:56:29.499Z,24.20
2018-06-01T15:58:57.849Z,24.90
2018-06-01T16:01:25.538Z,24.90
2018-06-01T16:03:53.872Z,26.90
2018-06-01T16:06:21.450Z,26.80
2018-06-01T16:08:49.932Z,27.20
2018-06-01T16:11:18.286Z,27.80
2018-06-01T16:13:45.845Z,28.00
2018-06-01T16:16:13.447Z,28.70
2018-06-01T16:18:41.035Z,29.10
2018-06-01T16:21:09.367Z,29.60
2018-06-01T16:23:36.943Z,29.60
2018-06-01T16:26:04.516Z,30.20
2018-06-01T16:28:33.780Z,30.30
2018-06-01T16:31:01.363Z,30.20
2018-06-01T16:33:28.925Z,30.50
2018-06-01T16:35:57.294Z,30.70
2018-06-01T16:38:25.091Z,31.00
2018-06-01T16:40:53.425Z,31.30
2018-06-01T16:43:20.993Z,31.30
2018-06-01T16:45:48.622Z,31.50
2018-06-01T16:48:16.198Z,31.60
2018-06-01T16:50:43.771Z,31.90
2018-06-01T16:53:11.903Z,32.60
2018-06-01T16:55:39.718Z,32.20
2018-06-01T16:58:07.249Z,32.70
2018-06-01T17:00:35.559Z,32.10
2018-06-01T17:03:03.559Z,32.10
2018-06-01T17:05:31.094Z,32.50
2018-06-01T17:07:58.672Z,32.50
2018-06-01T17:10:27.043Z,32.80
2018-06-01T17:12:54.760Z,32.30
2018-06-01T17:15:23.074Z,32.90
2018-06-01T17:17:50.615Z,32.90
2018-06-01T17:20:18.278Z,33.00
2018-06-01T17:22:45.848Z,32.60
2018-06-01T17:25:14.272Z,32.80
2018-06-01T17:27:41.806Z,32.90
2018-06-01T17:30:09.347Z,32.90
2018-06-01T17:32:36.904Z,33.30
2018-06-01T17:35:04.440Z,33.50
2018-06-01T17:37:32.066Z,34.40
2018-06-01T17:39:59.591Z,33.80
2018-06-01T17:42:27.152Z,33.70
2018-06-01T17:44:54.996Z,34.30
2018-06-01T17:47:22.524Z,34.40
2018-06-01T17:49:50.077Z,33.80
2018-06-01T17:52:18.045Z,34.40
2018-06-01T17:54:45.592Z,33.80
2018-06-01T17:57:13.155Z,34.30
2018-06-01T17:59:41.057Z,34.50
2018-06-01T18:02:08.663Z,34.20
2018-06-01T18:04:36.215Z,33.80
2018-06-01T18:07:03.951Z,34.20
2018-06-01T18:09:32.470Z,34.40
2018-06-01T18:12:00.041Z,34.40
2018-06-01T18:14:27.586Z,34.30
2018-06-01T18:16:55.798Z,34.70
2018-06-01T18:19:23.343Z,34.90
2018-06-01T18:21:50.898Z,35.10
2018-06-01T18:24:18.459Z,35.30
2018-06-01T18:26:46.018Z,35.80
2018-06-01T18:29:13.558Z,35.90
2018-06-01T18:31:41.809Z,35.60
2018-06-01T18:34:09.353Z,35.70
2018-06-01T18:36:37.680Z,36.20
2018-06-01T18:39:05.216Z,36.20
2018-06-01T18:41:33.031Z,36.40
2018-06-01T18:44:00.622Z,35.70
2018-06-01T18:46:28.147Z,36.30
2018-06-01T18:48:56.118Z,36.50
2018-06-01T18:51:23.670Z,36.40
2018-06-01T18:53:51.229Z,36.40
2018-06-01T18:56:18.831Z,36.30
2018-06-01T18:58:47.538Z,36.50
2018-06-01T19:01:16.238Z,36.60
2018-06-01T19:03:43.773Z,36.50
2018-06-01T19:06:12.111Z,37.10
2018-06-01T19:08:40.063Z,37.10
2018-06-01T19:11:07.634Z,37.40
2018-06-01T19:13:35.202Z,38.10
2018-06-01T19:16:03.267Z,38.10
2018-06-01T19:18:30.802Z,37.70
2018-06-01T19:20:58.354Z,37.90
2018-06-01T19:23:26.815Z,39.00
2018-06-01T19:25:55.311Z,38.70
2018-06-01T19:28:22.835Z,38.70
2018-06-01T19:30:50.431Z,39.10
2018-06-01T19:33:17.958Z,39.20
2018-06-01T19:35:45.485Z,39.20
2018-06-01T19:38:13.032Z,39.10
2018-06-01T19:40:40.581Z,39.80
2018-06-01T19:43:08.222Z,40.20
2018-06-01T19:45:36.523Z,39.50
2018-06-01T19:48:05.019Z,39.60
2018-06-01T19:50:33.383Z,40.20
2018-06-01T19:53:02.516Z,39.60
2018-06-01T19:55:30.859Z,39.40
2018-06-01T19:57:58.443Z,39.40
2018-06-01T20:00:26.089Z,39.20
2018-06-01T20:02:53.619Z,40.10
2018-06-01T20:05:21.921Z,40.50
2018-06-01T20:07:49.450Z,40.50
2018-06-01T20:10:17.863Z,40.10
2018-06-01T20:12:45.411Z,40.00
2018-06-01T20:15:12.993Z,40.60
2018-06-01T20:17:40.552Z,41.10
2018-06-01T20:20:08.079Z,41.10
2018-06-01T20:22:36.390Z,41.10
2018-06-01T20:25:04.862Z,41.10
2018-06-01T20:27:32.991Z,41.40
2018-06-01T20:30:00.549Z,41.60
2018-06-01T20:32:28.074Z,42.20
2018-06-01T20:34:56.390Z,42.10
2018-06-01T20:37:23.931Z,42.20
2018-06-01T20:39:51.478Z,42.80
2018-06-01T20:42:19.932Z,42.80
2018-06-01T20:44:47.468Z,42.60
2018-06-01T20:47:15.766Z,43.10
2018-06-01T20:49:43.294Z,43.00
2018-06-01T20:52:12.265Z,43.80
2018-06-01T20:54:39.795Z,43.70
2018-06-01T20:57:07.339Z,44.20
2018-06-01T20:59:34.871Z,44.30
2018-06-01T21:02:03.781Z,43.40
2018-06-01T21:04:31.339Z,43.30
2018-06-01T21:06:59.632Z,44.30
2018-06-01T21:09:27.183Z,44.20
2018-06-01T21:11:54.725Z,44.60
2018-06-01T21:14:23.011Z,44.40
2018-06-01T21:16:50.550Z,44.40
2018-06-01T21:19:18.861Z,44.50
2018-06-01T21:21:46.403Z,44.50
2018-06-01T21:24:14.706Z,44.60
2018-06-01T21:26:42.243Z,44.50
2018-06-01T21:29:09.775Z,44.50
2018-06-01T21:31:37.311Z,44.50
2018-06-01T21:34:04.845Z,44.40
2018-06-01T21:36:32.413Z,44.50
2018-06-01T21:38:59.952Z,44.10
2018-06-01T21:41:27.473Z,44.20
2018-06-01T21:43:55.461Z,44.10
2018-06-01T21:46:23.758Z,45.30
2018-06-01T21:48:51.285Z,45.10
2018-06-01T21:51:19.645Z,45.40
2018-06-01T21:53:47.178Z,45.30
2018-06-01T21:56:14.714Z,45.50
2018-06-01T21:58:42.242Z,45.30
2018-06-01T22:01:10.757Z,45.60
2018-06-01T22:03:38.282Z,46.30
2018-06-01T22:06:05.819Z,46.20
2018-06-01T22:08:34.102Z,45.90
2018-06-01T22:11:01.638Z,46.10
2018-06-01T22:13:29.187Z,46.20
2018-06-01T22:15:57.561Z,46.20
2018-06-01T22:18:25.159Z,46.80
2018-06-01T22:20:52.692Z,46.50
2018-06-01T22:23:20.553Z,46.70
2018-06-01T22:25:49.554Z,45.80
2018-06-01T22:28:17.343Z,45.80
2018-06-01T22:30:44.907Z,46.20
2018-06-01T22:33:12.432Z,46.20
2018-06-01T22:35:39.985Z,45.80
2018-06-01T22:38:07.502Z,45.50
2018-06-01T22:40:35.046Z,45.90
2018-06-01T22:43:02.973Z,45.70
2018-06-01T22:45:30.503Z,45.70
2018-06-01T22:47:58.823Z,46.40
2018-06-01T22:50:26.595Z,46.30
2018-06-01T22:52:54.164Z,46.30
2018-06-01T22:55:21.642Z,46.70
2018-06-01T22:57:49.892Z,46.90
2018-06-01T23:00:32.415Z,47.30
2018-06-01T23:02:59.951Z,47.40
2018-06-01T23:05:27.627Z,47.40
2018-06-01T23:07:56.172Z,47.00
2018-06-01T23:10:24.487Z,47.20
2018-06-01T23:12:52.029Z,47.20
2018-06-01T23:15:19.562Z,47.70
2018-06-01T23:17:48.866Z,47.70
2018-06-01T23:20:17.182Z,48.50
2018-06-01T23:22:44.734Z,48.40
2018-06-01T23:25:12.262Z,47.70
2018-06-01T23:27:41.375Z,47.10
2018-06-01T23:30:08.907Z,47.00
2018-06-01T23:32:36.466Z,47.20
2018-06-01T23:35:04.929Z,47.70
2018-06-01T23:37:33.083Z,47.80
2018-06-01T23:40:00.610Z,48.40
2018-06-01T23:42:28.159Z,48.60
2018-06-01T23:44:56.231Z,48.80
2018-06-01T23:47:25.870Z,48.90
2018-06-01T23:49:53.401Z,48.90
2018-06-01T23:52:21.790Z,49.10
2018-06-01T23:54:49.364Z,49.10
2018-06-01T23:57:16.889Z,49.80
2018-06-01T23:59:45.202Z,48.50
